Time;durP1;ratioP1;P1;durP2;ratioP2;P2;SDS_P1;SDS_P2;PMS_P1;PMS_P2;Temp;Humidity;BMP_temperature;BMP_pressure;BME280_temperature;BME280_humidity;BME280_pressure;Samples;Min_cycle;Max_cycle;Signal;HPM_P1;HPM_P2
2021/08/17 00:00:49;;;;;;;3.20;1.33;;;;;;;16.90;65.42;101634.53;2627125;36;20027;31
2021/08/17 00:03:18;;;;;;;3.20;1.25;;;;;;;16.90;65.89;101639.81;2622937;36;20089;31
2021/08/17 00:05:48;;;;;;;2.35;0.90;;;;;;;17.01;65.47;101657.00;2603994;47;20026;31
2021/08/17 00:08:18;;;;;;;5.03;1.25;;;;;;;16.99;65.27;101650.94;2604334;54;20022;31
2021/08/17 00:10:46;;;;;;;7.65;1.90;;;;;;;16.84;65.68;101625.94;2625523;36;20069;31
2021/08/17 00:15:42;;;;;;;;;;;;;;;17.01;63.63;101654.38;2628327;36;20026;31
2021/08/17 00:18:10;;;;;;;2.78;1.20;;;;;;;16.89;65.45;101638.09;2622786;36;19985;31
2021/08/17 00:20:41;;;;;;;4.47;1.50;;;;;;;16.92;65.29;101643.25;2606980;54;19953;31
2021/08/17 00:23:09;;;;;;;6.93;1.40;;;;;;;16.82;65.38;101629.50;2623429;36;20022;31
2021/08/17 00:25:43;;;;;;;4.38;1.10;;;;;;;16.83;65.36;101640.03;2631073;36;20025;31
2021/08/17 00:28:13;;;;;;;6.00;1.90;;;;;;;16.92;65.33;101653.81;2623817;36;20022;31
2021/08/17 00:30:43;;;;;;;3.40;1.17;;;;;;;16.84;65.18;101647.03;2613548;54;19943;31
2021/08/17 00:33:13;;;;;;;5.68;1.38;;;;;;;16.79;65.53;101637.56;2623866;36;20936;31
2021/08/17 00:35:43;;;;;;;4.90;1.40;;;;;;;16.71;65.27;101624.59;2604612;46;20033;31
2021/08/17 00:38:13;;;;;;;6.17;1.27;;;;;;;16.75;65.39;101630.66;2623777;36;21161;31
2021/08/17 00:40:43;;;;;;;3.50;1.05;;;;;;;16.85;65.42;101654.03;2628582;36;20270;31
2021/08/17 00:43:11;;;;;;;5.97;1.35;;;;;;;16.75;65.71;101647.34;2622906;36;19931;31
2021/08/17 00:45:41;;;;;;;8.85;1.20;;;;;;;16.86;65.34;101655.75;2603789;54;20758;31
2021/08/17 00:48:11;;;;;;;4.45;1.60;;;;;;;16.83;65.66;101661.13;2627150;36;19942;31
2021/08/17 00:50:44;;;;;;;3.80;1.25;;;;;;;16.81;65.26;101655.03;2629892;36;20917;31
2021/08/17 00:53:15;;;;;;;3.47;1.30;;;;;;;16.73;65.55;101632.50;2625501;36;20070;31
2021/08/17 00:55:45;;;;;;;5.60;1.35;;;;;;;16.75;65.83;101639.41;2624912;36;20018;31
2021/08/17 00:58:12;;;;;;;9.25;1.65;;;;;;;16.55;65.78;101599.63;2605823;54;20031;31
2021/08/17 01:00:46;;;;;;;4.13;1.57;;;;;;;16.81;65.39;101643.63;2609949;54;20045;31
2021/08/17 01:03:14;;;;;;;5.75;1.40;;;;;;;16.77;66.00;101634.94;2622916;36;20318;31
2021/08/17 01:05:42;;;;;;;6.13;1.23;;;;;;;16.56;65.50;101593.44;2629912;36;20057;31
2021/08/17 01:08:10;;;;;;;8.90;1.55;;;;;;;16.68;65.77;101615.91;2631067;36;20038;31
2021/08/17 01:10:39;;;;;;;6.17;1.37;;;;;;;16.60;65.72;101605.63;2623334;36;20086;31
2021/08/17 01:13:06;;;;;;;3.90;1.30;;;;;;;16.74;65.67;101627.16;2603697;54;20048;31
2021/08/17 01:15:33;;;;;;;6.20;1.30;;;;;;;16.67;65.58;101617.66;2604150;54;20898;31
2021/08/17 01:20:32;;;;;;;6.50;1.50;;;;;;;16.59;65.36;101593.34;2622707;36;20038;31
2021/08/17 01:25:34;;;;;;;6.60;1.70;;;;;;;16.53;65.71;101590.91;2622591;36;19930;31
2021/08/17 01:28:02;;;;;;;7.72;1.75;;;;;;;16.66;65.98;101621.22;2622516;36;20035;31
2021/08/17 01:30:30;;;;;;;8.57;2.00;;;;;;;16.57;65.90;101601.31;2606525;54;20029;31
2021/08/17 01:33:00;;;;;;;5.60;2.07;;;;;;;16.47;65.89;101578.78;2606329;54;20909;31
2021/08/17 01:35:31;;;;;;;3.50;1.40;;;;;;;16.62;66.57;101609.03;2625095;36;20049;31
2021/08/17 01:38:05;;;;;;;5.57;1.60;;;;;;;16.48;65.54;101580.53;2623422;36;20082;31
2021/08/17 01:40:35;;;;;;;5.75;1.10;;;;;;;16.50;66.42;101593.66;2623771;36;20034;31
2021/08/17 01:43:05;;;;;;;5.68;1.20;;;;;;;16.58;66.43;101610.09;2625170;36;20065;31
2021/08/17 01:45:33;;;;;;;5.80;1.30;;;;;;;16.51;66.50;101601.50;2628670;36;20057;31
2021/08/17 01:48:05;;;;;;;5.57;1.15;;;;;;;16.47;66.19;101588.47;2622558;36;20030;31
2021/08/17 01:50:35;;;;;;;3.28;0.90;;;;;;;16.55;66.54;101597.00;2610370;54;20039;31
2021/08/17 01:53:03;;;;;;;4.30;1.30;;;;;;;16.56;66.29;101596.06;2604527;54;20809;31
2021/08/17 01:55:32;;;;;;;8.55;1.40;;;;;;;16.46;66.55;101582.31;2607040;47;20054;31
2021/08/17 01:58:03;;;;;;;4.80;0.95;;;;;;;16.35;66.35;101564.22;2624264;36;20883;31
2021/08/17 02:00:31;;;;;;;6.60;1.60;;;;;;;16.42;66.74;101580.69;2610856;54;20023;31
2021/08/17 02:03:01;;;;;;;5.30;1.45;;;;;;;16.49;66.76;101581.38;2604572;54;20030;31
2021/08/17 02:05:29;;;;;;;5.07;1.17;;;;;;;16.36;66.70;101562.47;2630023;36;20063;31
2021/08/17 02:08:02;;;;;;;6.85;1.30;;;;;;;16.39;66.50;101569.41;2607326;54;20781;31
2021/08/17 02:10:31;;;;;;;8.65;1.70;;;;;;;16.45;66.61;101575.34;2626194;36;20049;31
2021/08/17 02:13:03;;;;;;;4.80;1.10;;;;;;;16.51;66.35;101587.44;2608221;54;20031;31
2021/08/17 02:15:33;;;;;;;4.28;1.20;;;;;;;16.45;66.10;101591.16;2605315;54;20050;31
2021/08/17 02:18:02;;;;;;;8.18;1.20;;;;;;;16.30;66.38;101566.16;2605161;46;20037;31
2021/08/17 02:20:32;;;;;;;3.05;0.85;;;;;;;16.31;65.90;101577.56;2604848;46;20038;31
2021/08/17 02:23:02;;;;;;;4.63;1.30;;;;;;;16.47;66.12;101625.38;2623131;36;20031;31
2021/08/17 02:25:30;;;;;;;4.15;1.10;;;;;;;16.40;66.06;101602.78;2624538;36;20074;31
2021/08/17 02:27:59;;;;;;;6.30;1.17;;;;;;;16.38;66.03;101587.00;2604975;54;20074;31
2021/08/17 02:32:55;;;;;;;3.58;0.80;;;;;;;16.33;66.37;101571.34;2622973;36;20902;31
2021/08/17 02:37:55;;;;;;;3.03;0.73;;;;;;;16.35;65.44;101574.78;2622968;36;20081;31
2021/08/17 02:40:23;;;;;;;4.50;1.10;;;;;;;16.18;65.40;101539.34;2624595;36;20030;31
2021/08/17 02:42:53;;;;;;;5.07;1.25;;;;;;;16.36;65.31;101580.91;2605957;54;20026;31
2021/08/17 02:45:23;;;;;;;4.13;1.00;;;;;;;16.20;65.44;101542.78;2627365;36;20026;31
2021/08/17 02:48:01;;;;;;;3.00;1.15;;;;;;;16.33;65.40;101576.63;2623248;36;20062;31
2021/08/17 02:50:31;;;;;;;;;;;;;;;16.38;64.69;101573.84;2625708;36;20046;31
2021/08/17 02:52:59;;;;;;;2.38;0.85;;;;;;;16.16;65.34;101542.03;2604719;54;20763;31
2021/08/17 02:55:29;;;;;;;6.05;1.58;;;;;;;16.26;65.49;101556.63;2607005;54;20042;31
2021/08/17 02:58:05;;;;;;;5.07;1.10;;;;;;;16.27;65.36;101550.47;2631366;36;20769;31
2021/08/17 03:00:37;;;;;;;4.03;1.05;;;;;;;16.30;65.20;101560.88;2629456;36;20770;31
2021/08/17 03:03:08;;;;;;;4.90;1.20;;;;;;;16.28;65.77;101554.81;2611376;54;21603;31
2021/08/17 03:05:40;;;;;;;4.70;1.10;;;;;;;16.21;65.46;101550.63;2605108;54;20080;31
2021/08/17 03:08:10;;;;;;;4.80;0.90;;;;;;;16.09;65.27;101524.69;2604853;47;20298;31
2021/08/17 03:10:41;;;;;;;3.10;1.00;;;;;;;16.24;65.51;101545.28;2610328;46;20843;31
2021/08/17 03:13:11;;;;;;;4.15;0.90;;;;;;;16.10;65.31;101518.50;2623592;36;20050;31
2021/08/17 03:15:40;;;;;;;3.92;0.90;;;;;;;16.19;65.90;101526.13;2625038;36;20124;31
2021/08/17 03:18:10;;;;;;;6.03;1.15;;;;;;;16.21;65.42;101539.25;2623759;36;20799;31
2021/08/17 03:20:40;;;;;;;4.55;1.00;;;;;;;16.22;65.23;101536.56;2626734;36;20049;31
2021/08/17 03:23:13;;;;;;;4.85;1.20;;;;;;;16.06;65.60;101520.38;2624088;36;20728;31
2021/08/17 03:25:41;;;;;;;5.03;1.00;;;;;;;16.04;65.62;101516.94;2623403;36;20029;31
2021/08/17 03:28:09;;;;;;;5.90;1.15;;;;;;;16.01;65.78;101503.00;2604640;54;20082;31
2021/08/17 03:30:37;;;;;;;4.75;1.13;;;;;;;16.13;65.69;101521.06;2604214;54;20022;31
2021/08/17 03:33:06;;;;;;;5.22;1.65;;;;;;;16.12;65.51;101516.72;2623214;36;21117;31
2021/08/17 03:35:34;;;;;;;5.03;0.97;;;;;;;16.00;65.73;101488.09;2604162;54;20034;31
2021/08/17 03:38:04;;;;;;;5.60;1.15;;;;;;;16.15;65.28;101524.50;2611933;54;20278;31
2021/08/17 03:40:32;;;;;;;4.20;0.82;;;;;;;16.09;65.74;101516.78;2624139;36;20940;31
2021/08/17 03:43:00;;;;;;;3.13;0.90;;;;;;;16.08;66.03;101507.19;2605072;47;20038;31
2021/08/17 03:45:31;;;;;;;1.60;0.70;;;;;;;15.95;65.85;101479.50;2603856;47;20025;31
2021/08/17 03:48:01;;;;;;;3.05;0.77;;;;;;;16.08;65.63;101515.09;2624577;36;20027;31
2021/08/17 03:50:31;;;;;;;4.43;1.10;;;;;;;15.98;65.61;101500.47;2622739;36;20025;31
2021/08/17 03:53:01;;;;;;;4.75;0.90;;;;;;;16.01;65.91;101510.91;2629375;36;20042;31
2021/08/17 03:55:30;;;;;;;4.28;0.90;;;;;;;15.90;65.92;101486.69;2604437;46;20060;31
2021/08/17 03:58:00;;;;;;;3.40;1.30;;;;;;;15.95;65.45;101500.56;2628127;36;20346;31
2021/08/17 04:00:32;;;;;;;3.17;0.80;;;;;;;16.07;65.57;101523.91;2628769;36;20029;31
2021/08/17 04:03:01;;;;;;;4.22;0.93;;;;;;;15.88;66.32;101499.06;2624591;36;20035;31
2021/08/17 04:05:31;;;;;;;3.20;1.13;;;;;;;15.89;66.00;101501.63;2604591;46;20944;31
2021/08/17 04:07:59;;;;;;;5.10;1.30;;;;;;;15.85;66.48;101500.00;2606870;46;20022;31
2021/08/17 04:10:28;;;;;;;2.20;0.68;;;;;;;16.04;66.39;101516.09;2626607;36;20031;31
2021/08/17 04:12:55;;;;;;;10.07;1.60;;;;;;;15.80;66.74;101484.34;2605773;47;20027;31
2021/08/17 04:15:23;;;;;;;;;;;;;;;16.07;65.08;101522.13;2605144;46;20049;31
2021/08/17 04:17:51;;;;;;;2.03;0.70;;;;;;;16.01;66.64;101527.56;2623318;36;20777;31
2021/08/17 04:20:23;;;;;;;3.00;0.88;;;;;;;15.78;66.23;101499.34;2622835;36;20034;31
2021/08/17 04:22:50;;;;;;;2.85;0.68;;;;;;;15.92;66.72;101527.03;2605051;46;20062;31
2021/08/17 04:25:18;;;;;;;2.15;0.50;;;;;;;15.73;66.45;101497.75;2622973;36;21739;31
2021/08/17 04:27:48;;;;;;;3.25;0.52;;;;;;;15.86;66.84;101532.47;2608166;46;20065;31
2021/08/17 04:30:18;;;;;;;4.80;0.90;;;;;;;15.95;66.76;101542.72;2623784;36;20022;31
2021/08/17 04:32:49;;;;;;;4.07;0.90;;;;;;;15.86;66.74;101537.72;2609547;54;22039;31
2021/08/17 04:35:19;;;;;;;1.17;0.55;;;;;;;15.90;66.94;101539.38;2623223;36;20778;31
2021/08/17 04:37:47;;;;;;;5.28;0.50;;;;;;;15.80;66.96;101531.75;2623637;36;20030;31
2021/08/17 04:40:17;;;;;;;1.10;0.60;;;;;;;15.89;67.10;101537.66;2604653;46;20934;31
2021/08/17 04:42:47;;;;;;;2.45;0.60;;;;;;;15.76;66.91;101511.72;2623429;36;20939;31
2021/08/17 04:45:15;;;;;;;1.00;0.50;;;;;;;15.83;67.04;101528.16;2624818;36;20045;31
2021/08/17 04:47:48;;;;;;;3.13;0.80;;;;;;;15.98;67.04;101547.91;2623095;36;20026;31
2021/08/17 04:50:20;;;;;;;1.17;0.50;;;;;;;15.99;66.86;101549.63;2604163;46;20023;31
2021/08/17 04:52:51;;;;;;;3.55;0.50;;;;;;;15.96;66.74;101544.44;2607867;54;20049;31
2021/08/17 04:55:22;;;;;;;3.10;0.70;;;;;;;15.94;66.80;101530.47;2623068;36;20030;31
2021/08/17 04:57:53;;;;;;;4.50;0.73;;;;;;;16.00;67.18;101540.78;2623327;36;20051;31
2021/08/17 05:00:25;;;;;;;0.98;0.50;;;;;;;15.79;66.73;101510.72;2605150;46;21284;31
2021/08/17 05:02:54;;;;;;;1.30;0.70;;;;;;;15.72;67.20;101496.91;2604351;47;20038;31
2021/08/17 05:05:25;;;;;;;1.27;0.45;;;;;;;15.83;67.13;101522.91;2622332;36;20124;31
2021/08/17 05:07:55;;;;;;;3.67;0.57;;;;;;;15.93;67.15;101534.88;2622959;36;20053;31
2021/08/17 05:10:26;;;;;;;2.80;0.60;;;;;;;15.87;66.85;101526.31;2625220;36;20026;31
2021/08/17 05:12:54;;;;;;;2.57;0.60;;;;;;;15.84;67.17;101521.97;2623138;36;20054;31
2021/08/17 05:15:24;;;;;;;3.95;0.50;;;;;;;15.79;66.99;101519.50;2604437;54;20037;31
2021/08/17 05:17:54;;;;;;;3.22;0.45;;;;;;;15.76;67.30;101511.72;2607415;47;20025;31
2021/08/17 05:20:25;;;;;;;3.53;0.80;;;;;;;15.82;67.21;101527.31;2623292;36;20036;31
2021/08/17 05:22:54;;;;;;;2.45;0.60;;;;;;;15.80;67.51;101521.22;2629971;36;20034;31
2021/08/17 05:25:24;;;;;;;2.22;0.65;;;;;;;16.00;67.49;101551.34;2608584;54;20022;31
2021/08/17 05:27:55;;;;;;;1.25;0.50;;;;;;;15.93;67.67;101540.13;2627269;36;20038;31
2021/08/17 05:30:24;;;;;;;1.95;0.52;;;;;;;15.81;67.62;101515.06;2627390;36;20046;31
2021/08/17 05:32:52;;;;;;;1.93;0.37;;;;;;;15.96;67.69;101549.69;2604633;47;19942;31
2021/08/17 05:35:22;;;;;;;3.33;0.60;;;;;;;15.96;67.58;101539.16;2606894;54;20242;31
2021/08/17 05:37:50;;;;;;;2.53;0.47;;;;;;;15.83;67.58;101531.66;2625078;36;20871;31
2021/08/17 05:40:18;;;;;;;3.97;0.70;;;;;;;15.97;67.71;101557.59;2613022;47;20085;31
2021/08/17 05:42:46;;;;;;;;;;;;;;;16.08;66.22;101557.25;2612796;46;20022;31
2021/08/17 05:45:15;;;;;;;1.17;0.40;;;;;;;15.86;67.47;101527.19;2624049;36;19974;31
2021/08/17 05:47:45;;;;;;;3.23;0.40;;;;;;;16.07;67.55;101548.47;2608973;54;20050;31
2021/08/17 05:50:14;;;;;;;1.85;0.50;;;;;;;15.88;67.75;101499.06;2626485;36;20057;31
2021/08/17 05:52:45;;;;;;;2.67;0.60;;;;;;;16.02;67.52;101524.03;2624134;36;20030;31
2021/08/17 05:55:16;;;;;;;0.88;0.38;;;;;;;16.04;67.26;101534.53;2627776;36;20038;31
2021/08/17 05:57:57;;;;;;;3.70;0.45;;;;;;;16.09;66.99;101544.00;2625761;36;21718;31
2021/08/17 06:00:26;;;;;;;1.77;0.50;;;;;;;16.08;67.84;101538.78;2623428;36;20756;31
2021/08/17 06:02:54;;;;;;;2.30;0.70;;;;;;;15.92;67.89;101533.16;2623339;36;20019;31
2021/08/17 06:05:24;;;;;;;5.20;0.80;;;;;;;15.86;67.71;101519.28;2623838;36;20331;31
2021/08/17 06:07:53;;;;;;;2.30;0.43;;;;;;;15.91;68.24;101530.53;2628103;36;20239;31
2021/08/17 06:10:24;;;;;;;1.38;0.50;;;;;;;15.93;67.74;101534.00;2713009;36;21007;31
2021/08/17 06:12:52;;;;;;;2.20;0.57;;;;;;;16.08;68.10;101559.88;2604910;46;20893;31
2021/08/17 06:15:22;;;;;;;3.20;0.63;;;;;;;15.98;67.78;101526.81;2622225;36;20786;31
2021/08/17 06:17:53;;;;;;;1.97;0.50;;;;;;;16.02;68.08;101539.00;2624645;36;20053;31
2021/08/17 06:20:22;;;;;;;2.08;0.60;;;;;;;16.04;67.74;101531.88;2612475;54;20019;31
2021/08/17 06:22:52;;;;;;;2.83;0.70;;;;;;;16.03;68.13;101527.53;2605058;54;20109;31
2021/08/17 06:25:22;;;;;;;4.40;0.80;;;;;;;16.19;68.16;101546.34;2623427;36;20021;31
2021/08/17 06:27:52;;;;;;;3.00;0.60;;;;;;;16.16;68.37;101549.06;2624326;36;20026;31
2021/08/17 06:30:21;;;;;;;2.88;0.50;;;;;;;16.12;68.42;101539.53;2607743;54;20026;31
2021/08/17 06:32:54;;;;;;;1.48;0.60;;;;;;;16.22;67.93;101552.38;2632393;36;20018;31
2021/08/17 06:35:25;;;;;;;1.42;0.60;;;;;;;16.24;68.17;101547.91;2612627;54;20042;31
2021/08/17 06:37:55;;;;;;;1.33;0.52;;;;;;;16.15;67.74;101524.50;2627438;36;20034;31
2021/08/17 06:40:24;;;;;;;1.60;0.50;;;;;;;16.15;68.23;101524.50;2624579;36;20026;31
2021/08/17 06:42:54;;;;;;;6.85;1.10;;;;;;;16.18;67.86;101521.78;2633027;36;20030;31
2021/08/17 06:45:27;;;;;;;0.98;0.43;;;;;;;16.32;67.74;101561.72;2647942;36;20038;31
2021/08/17 06:47:57;;;;;;;2.72;0.68;;;;;;;16.45;68.02;101561.31;2632598;36;20022;31
2021/08/17 06:50:43;;;;;;;3.50;0.80;;;;;;;16.20;67.83;101516.44;2630456;36;20091;31
2021/08/17 06:53:12;;;;;;;5.18;1.05;;;;;;;16.37;68.21;101552.78;2623861;46;20049;31
2021/08/17 06:55:45;;;;;;;1.63;0.60;;;;;;;16.53;67.82;101568.06;2616803;54;20023;31
2021/08/17 06:58:14;;;;;;;2.78;0.60;;;;;;;16.53;68.03;101561.91;2649681;36;20589;-77
2021/08/17 07:00:42;;;;;;;2.55;0.40;;;;;;;16.55;68.43;101565.34;2606948;47;20022;31
2021/08/17 07:03:10;;;;;;;2.65;0.70;;;;;;;16.49;68.31;101555.00;2623306;36;19934;31
2021/08/17 07:05:40;;;;;;;3.67;0.73;;;;;;;16.57;68.63;101553.84;2605390;46;20033;31
2021/08/17 07:08:11;;;;;;;1.90;0.60;;;;;;;16.61;68.42;101571.28;2626522;36;20034;31
2021/08/17 07:10:42;;;;;;;2.35;0.85;;;;;;;16.67;68.54;101570.19;2625483;36;20081;31
2021/08/17 07:13:21;;;;;;;2.13;0.50;;;;;;;16.72;68.32;101578.84;2626496;36;20027;31
2021/08/17 07:15:50;;;;;;;1.65;0.40;;;;;;;16.66;68.65;101573.75;2613587;54;20041;31
2021/08/17 07:18:21;;;;;;;2.60;0.60;;;;;;;16.77;68.07;101586.59;2604843;54;20081;31
2021/08/17 07:20:52;;;;;;;2.38;0.60;;;;;;;16.60;68.30;101560.78;2613154;46;20022;31
2021/08/17 07:23:21;;;;;;;1.00;0.50;;;;;;;16.81;68.58;101594.38;2623102;36;20026;31
2021/08/17 07:25:49;;;;;;;1.38;0.60;;;;;;;16.84;68.40;101578.44;2623846;46;20887;31
2021/08/17 07:28:18;;;;;;;2.90;0.57;;;;;;;16.79;68.24;101577.75;2637654;36;20736;31
2021/08/17 07:30:49;;;;;;;2.45;0.63;;;;;;;16.83;68.35;101575.88;2630385;36;20061;31
2021/08/17 07:33:20;;;;;;;1.67;0.70;;;;;;;16.85;68.18;101585.44;2625879;36;20022;31
2021/08/17 07:35:51;;;;;;;2.10;0.45;;;;;;;16.77;68.41;101563.72;2632275;36;20250;31
2021/08/17 07:38:21;;;;;;;2.23;0.73;;;;;;;16.91;68.28;101602.81;2624139;36;20029;31
2021/08/17 07:40:51;;;;;;;4.50;0.90;;;;;;;16.75;68.53;101578.75;2624443;36;20632;31
2021/08/17 07:43:21;;;;;;;1.33;0.50;;;;;;;16.95;68.36;101606.22;2626713;36;20026;31
2021/08/17 07:45:51;;;;;;;4.45;0.73;;;;;;;16.77;68.53;101571.63;2629663;36;20057;-76
2021/08/17 07:48:41;;;;;;;1.15;0.50;;;;;;;16.93;68.26;101603.66;2577934;39;2004784;31
2021/08/17 07:51:11;;;;;;;2.58;0.90;;;;;;;16.91;68.30;101599.31;2607848;54;20030;31
2021/08/17 07:53:41;;;;;;;2.25;0.57;;;;;;;16.80;68.62;101581.25;2607762;54;20042;31
2021/08/17 07:56:10;;;;;;;3.00;0.75;;;;;;;16.96;68.93;101607.94;2624856;36;20766;31
2021/08/17 07:58:38;;;;;;;1.33;0.60;;;;;;;16.84;68.94;101588.13;2620866;54;20884;31
2021/08/17 08:03:36;;;;;;;1.73;0.63;;;;;;;17.02;68.88;101602.44;2631076;46;20015;-77
2021/08/17 08:06:08;;;;;;;0.73;0.50;;;;;;;17.02;68.97;101605.09;2618602;54;20093;31
2021/08/17 08:08:37;;;;;;;1.55;0.50;;;;;;;16.96;69.07;101586.84;2609540;46;20027;31
2021/08/17 08:11:06;;;;;;;3.25;0.73;;;;;;;16.92;69.26;101579.94;2607242;54;20022;31
2021/08/17 08:13:36;;;;;;;2.35;0.60;;;;;;;17.01;68.80;101590.19;2612932;54;20030;31
2021/08/17 08:16:04;;;;;;;2.78;0.85;;;;;;;16.96;69.21;101578.91;2609700;54;20050;31
2021/08/17 08:18:35;;;;;;;1.95;0.50;;;;;;;17.13;69.02;101605.56;2610834;47;20049;31
2021/08/17 08:21:03;;;;;;;1.20;0.50;;;;;;;16.99;69.00;101574.41;2604829;46;20121;31
2021/08/17 08:23:33;;;;;;;2.28;0.68;;;;;;;17.04;68.78;101584.81;2605597;47;20045;31
2021/08/17 08:26:01;;;;;;;2.05;0.75;;;;;;;17.17;69.30;101591.34;2606303;54;20046;31
2021/08/17 08:28:29;;;;;;;2.45;0.77;;;;;;;17.13;69.33;101579.16;2605335;46;20023;31
2021/08/17 08:30:56;;;;;;;4.05;1.55;;;;;;;17.10;68.92;101568.75;2604580;54;20034;31
2021/08/17 08:33:25;;;;;;;3.97;0.90;;;;;;;17.27;68.75;101590.09;2608846;54;20027;31
2021/08/17 08:35:54;;;;;;;2.50;1.10;;;;;;;17.20;69.14;101567.50;2608209;47;21125;31
2021/08/17 08:38:24;;;;;;;4.10;1.30;;;;;;;17.24;68.32;101566.47;2604716;54;20078;31
2021/08/17 08:40:54;;;;;;;4.28;0.80;;;;;;;17.46;68.57;101592.94;2611822;46;20042;-77
2021/08/17 08:43:25;;;;;;;8.27;1.48;;;;;;;17.31;68.68;101567.09;2622617;54;20023;31
2021/08/17 08:45:56;;;;;;;2.13;0.70;;;;;;;17.48;68.55;101579.66;2632890;39;20833;31
2021/08/17 08:48:25;;;;;;;2.20;0.75;;;;;;;17.45;68.92;101575.38;2606757;46;20026;31
2021/08/17 08:50:54;;;;;;;2.63;1.00;;;;;;;17.62;68.78;101593.22;2613700;47;20093;31
2021/08/17 08:53:24;;;;;;;3.63;1.00;;;;;;;17.44;69.07;101538.47;2616258;54;20969;31
2021/08/17 08:55:53;;;;;;;3.20;1.10;;;;;;;17.76;69.12;101585.66;2631191;54;20666;-77
2021/08/17 08:58:25;;;;;;;1.67;0.50;;;;;;;17.84;68.80;101578.31;2631149;54;20015;-77
2021/08/17 09:00:54;;;;;;;4.33;1.00;;;;;;;17.97;69.18;101588.41;2642223;36;20014;31
2021/08/17 09:06:23;;;;;;;1.33;0.70;;;;;;;18.25;68.42;101583.75;2630770;54;20010;-79
2021/08/17 09:09:16;;;;;;;1.65;0.63;;;;;;;18.35;67.52;101563.94;2631190;54;20022;-79
2021/08/17 09:11:53;;;;;;;2.63;0.73;;;;;;;18.47;67.70;101574.91;2612409;36;2004328;-79
2021/08/17 09:14:30;;;;;;;1.00;0.50;;;;;;;18.58;67.75;101570.88;2649679;36;20006;-79
2021/08/17 09:16:59;;;;;;;2.50;0.50;;;;;;;18.67;67.57;101590.81;2630936;36;20029;31
2021/08/17 09:19:40;;;;;;;3.00;0.60;;;;;;;18.80;67.23;101570.84;2630201;47;20058;-79
2021/08/17 09:22:24;;;;;;;4.30;1.48;;;;;;;18.98;67.21;101579.78;2630849;54;20034;-79
2021/08/17 09:24:51;;;;;;;3.35;0.60;;;;;;;18.99;66.81;101551.53;2648734;36;20018;-79
2021/08/17 09:27:20;;;;;;;3.13;0.60;;;;;;;19.19;66.21;101570.03;2619792;47;20019;31
2021/08/17 09:30:01;;;;;;;3.08;0.80;;;;;;;19.32;66.68;101557.97;2629692;54;20086;-79
2021/08/17 09:32:30;;;;;;;1.42;0.38;;;;;;;19.45;65.92;101569.72;2648546;36;20035;-79
2021/08/17 09:34:58;;;;;;;2.05;0.50;;;;;;;19.62;64.64;101566.34;2640811;36;20096;-78
2021/08/17 09:37:30;;;;;;;1.30;0.60;;;;;;;19.73;64.60;101563.19;2630051;47;20014;-79
2021/08/17 09:40:02;;;;;;;2.13;0.70;;;;;;;19.84;64.57;101568.81;2648799;36;20003;-79
2021/08/17 09:42:33;;;;;;;2.88;0.57;;;;;;;19.89;64.23;101572.13;2630004;47;20758;-79
2021/08/17 09:45:23;;;;;;;1.73;0.60;;;;;;;20.09;64.42;101578.25;2648265;36;20030;-79
2021/08/17 09:47:56;;;;;;;1.10;0.45;;;;;;;20.13;63.80;101577.19;2629924;54;20738;-79
2021/08/17 09:50:28;;;;;;;0.32;0.32;;;;;;;20.14;63.29;101573.59;2612195;36;2004494;-79
2021/08/17 09:53:14;;;;;;;1.42;0.63;;;;;;;20.28;63.70;101559.66;2633395;39;20477;-79
2021/08/17 09:55:50;;;;;;;0.77;0.47;;;;;;;20.32;63.37;101567.34;2647975;36;20033;-78
2021/08/17 10:01:08;;;;;;;1.83;0.50;;;;;;;20.36;62.35;101553.00;2630160;54;20086;-79
2021/08/17 10:03:36;;;;;;;1.13;0.40;;;;;;;20.42;62.31;101565.97;2677915;36;20538;-79
2021/08/17 10:06:03;;;;;;;1.05;0.55;;;;;;;20.35;62.75;101535.38;2630841;39;20515;-79
2021/08/17 10:08:33;;;;;;;1.30;0.50;;;;;;;20.57;62.60;101560.84;2629146;36;20023;-78
2021/08/17 10:11:01;;;;;;;1.25;0.45;;;;;;;20.71;62.34;101553.06;2618108;36;2004547;-78
2021/08/17 10:13:37;;;;;;;1.13;0.60;;;;;;;20.85;62.23;101549.69;2668503;36;20030;-79
2021/08/17 10:16:05;;;;;;;1.17;0.60;;;;;;;20.95;62.35;101562.41;2697069;36;20569;-79
2021/08/17 10:18:39;;;;;;;1.30;0.57;;;;;;;21.07;61.35;101560.03;2632489;36;2005084;-80
2021/08/17 10:21:10;;;;;;;2.33;0.60;;;;;;;21.24;61.40;101562.69;2710881;36;20022;-78
2021/08/17 10:23:43;;;;;;;1.00;0.60;;;;;;;21.43;60.56;101563.41;2697913;36;20581;-79
2021/08/17 10:26:33;;;;;;;2.63;0.52;;;;;;;21.61;61.61;101560.69;2660223;36;20108;-79
2021/08/17 10:29:00;;;;;;;1.60;0.80;;;;;;;21.60;60.39;101553.69;2650506;36;2004320;-80
2021/08/17 10:31:31;;;;;;;0.82;0.43;;;;;;;21.74;60.11;101567.03;2675863;36;20085;-79
2021/08/17 10:34:07;;;;;;;1.25;0.45;;;;;;;21.91;60.42;101571.44;2654559;36;20057;-79
2021/08/17 10:36:37;;;;;;;2.13;0.80;;;;;;;21.98;59.64;101565.66;2696404;36;20038;-79
2021/08/17 10:39:06;;;;;;;2.08;0.70;;;;;;;22.03;58.54;101560.06;2665991;36;20027;-79
2021/08/17 10:41:37;;;;;;;0.75;0.40;;;;;;;22.16;59.13;101550.50;2647390;36;20048;-79
2021/08/17 10:44:08;;;;;;;0.85;0.50;;;;;;;22.22;58.22;101565.25;2730701;36;20023;-79
2021/08/17 10:46:47;;;;;;;0.85;0.57;;;;;;;22.31;58.74;101561.19;2658624;36;20011;-79
2021/08/17 10:49:30;;;;;;;0.80;0.40;;;;;;;22.35;58.54;101571.56;2647747;36;20086;-80
2021/08/17 10:52:05;;;;;;;0.95;0.45;;;;;;;22.34;58.57;101569.84;2600901;36;2005679;-79
2021/08/17 10:54:34;;;;;;;0.52;0.50;;;;;;;22.39;57.58;101575.75;2648201;36;20038;-79
2021/08/17 10:57:21;;;;;;;0.80;0.40;;;;;;;22.53;59.22;101567.81;2647611;36;20017;-79
2021/08/17 10:59:50;;;;;;;;;;;;;;;22.67;59.48;101568.81;2692998;36;20007;-79
2021/08/17 11:02:23;;;;;;;1.13;0.40;;;;;;;22.66;57.80;101567.13;2639899;36;19950;-79
2021/08/17 11:04:51;;;;;;;1.33;0.60;;;;;;;22.63;57.71;101561.97;2705311;36;20110;-79
2021/08/17 11:07:27;;;;;;;0.68;0.50;;;;;;;22.74;57.89;101568.34;2732972;36;20015;-79
2021/08/17 11:09:56;;;;;;;0.88;0.60;;;;;;;22.75;57.38;101550.56;2678495;36;20038;-79
2021/08/17 11:12:33;;;;;;;1.48;0.82;;;;;;;22.95;57.95;101552.91;2650866;36;20038;-79
2021/08/17 11:15:14;;;;;;;0.80;0.52;;;;;;;23.01;57.87;101559.66;2646960;36;20033;-79
2021/08/17 11:17:42;;;;;;;1.17;0.55;;;;;;;23.09;56.46;101559.22;2646454;36;20050;-79
2021/08/17 11:20:15;;;;;;;0.80;0.40;;;;;;;23.16;57.47;101555.19;2635070;36;20058;-79
2021/08/17 11:22:44;;;;;;;1.27;0.55;;;;;;;23.25;57.14;101554.63;2660777;36;20859;-79
2021/08/17 11:25:12;;;;;;;0.93;0.55;;;;;;;23.36;55.89;101565.47;2614182;36;2004782;-80
2021/08/17 11:27:41;;;;;;;0.70;0.40;;;;;;;23.49;56.44;101562.91;2627345;36;20022;-79
2021/08/17 11:30:13;;;;;;;1.55;0.50;;;;;;;23.63;55.71;101548.72;2642402;36;20041;-79
2021/08/17 11:32:54;;;;;;;1.20;0.47;;;;;;;23.80;55.37;101561.84;2660237;36;20026;-79
2021/08/17 11:35:27;;;;;;;1.20;0.50;;;;;;;23.93;55.70;101551.25;2645346;36;20019;-79
2021/08/17 11:37:57;;;;;;;0.68;0.52;;;;;;;24.12;54.70;101572.22;2645942;36;20452;-79
2021/08/17 11:40:26;;;;;;;1.27;0.52;;;;;;;24.14;53.45;101570.31;2664426;36;20022;-79
2021/08/17 11:42:56;;;;;;;0.57;0.45;;;;;;;24.17;53.14;101565.59;2637249;36;20018;-79
2021/08/17 11:45:29;;;;;;;0.63;0.43;;;;;;;24.07;54.05;101565.34;2646277;36;20449;-79
2021/08/17 11:47:59;;;;;;;0.90;0.45;;;;;;;23.98;53.36;101565.97;2694227;36;20055;-79
2021/08/17 11:50:27;;;;;;;0.90;0.50;;;;;;;23.91;53.98;101570.00;2648986;36;21056;-79
2021/08/17 11:52:59;;;;;;;0.88;0.40;;;;;;;23.89;53.88;101569.25;2693670;36;20019;-79
2021/08/17 11:55:29;;;;;;;0.93;0.50;;;;;;;23.80;53.95;101554.69;2662088;36;20029;-79
2021/08/17 11:57:59;;;;;;;1.98;0.65;;;;;;;23.78;54.44;101563.75;2641101;36;20629;-80
2021/08/17 12:00:27;;;;;;;2.38;0.70;;;;;;;23.70;53.90;101571.38;2719802;36;20031;-80
2021/08/17 12:02:57;;;;;;;1.20;0.70;;;;;;;23.67;53.80;101566.22;2638800;36;20019;-80
2021/08/17 12:05:30;;;;;;;0.80;0.50;;;;;;;23.60;54.64;101570.22;2629285;31;20047;-80
2021/08/17 12:08:05;;;;;;;1.27;0.70;;;;;;;23.51;54.43;101579.66;2629466;54;20037;-79